Time;durP1;ratioP1;P1;durP2;ratioP2;P2;SDS_P1;SDS_P2;PMS_P1;PMS_P2;Temp;Humidity;BMP_temperature;BMP_pressure;BME280_temperature;BME280_humidity;BME280_pressure;Samples;Min_cycle;Max_cycle;Signal;HPM_P1;HPM_P2
2024/04/04 00:01:00;;;;;;;3.22;0.73;;;;;;;;;;4994806;28;20073;-78
2024/04/04 00:03:28;;;;;;;2.85;0.60;;;;;;;;;;4979696;28;20054;-78
2024/04/04 00:05:54;;;;;;;4.03;0.80;;;;;;;;;;4993908;28;20055;-78
2024/04/04 00:08:19;;;;;;;2.22;1.00;;;;;;;;;;4993214;28;20050;-78
2024/04/04 00:10:45;;;;;;;3.95;0.82;;;;;;;;;;4986256;28;20076;-78
2024/04/04 00:13:10;;;;;;;1.85;1.23;;;;;;;;;;4995648;28;20050;-77
2024/04/04 00:15:39;;;;;;;2.08;1.33;;;;;;;;;;4991036;28;20050;-78
2024/04/04 00:18:05;;;;;;;2.03;0.73;;;;;;;;;;4971194;28;20420;-78
2024/04/04 00:20:31;;;;;;;3.47;1.08;;;;;;;;;;4994114;28;20050;-78
2024/04/04 00:22:57;;;;;;;3.97;0.85;;;;;;;;;;4978361;28;20129;-78
2024/04/04 00:25:23;;;;;;;5.50;1.10;;;;;;;;;;4965677;28;20050;-78
2024/04/04 00:27:48;;;;;;;1.35;0.63;;;;;;;;;;4977502;28;20090;-78
2024/04/04 00:30:14;;;;;;;2.58;0.70;;;;;;;;;;4977372;28;20149;-78
2024/04/04 00:32:40;;;;;;;2.28;0.68;;;;;;;;;;4977314;28;20118;-78
2024/04/04 00:35:05;;;;;;;3.45;0.50;;;;;;;;;;4977333;28;20372;-78
2024/04/04 00:37:31;;;;;;;2.70;0.93;;;;;;;;;;4994429;28;20057;-77
2024/04/04 00:39:57;;;;;;;2.03;0.73;;;;;;;;;;4975511;28;20051;-76
2024/04/04 00:42:22;;;;;;;3.38;1.20;;;;;;;;;;4962725;28;20122;-77
2024/04/04 00:44:48;;;;;;;2.20;0.93;;;;;;;;;;4961746;28;20451;-77
2024/04/04 00:47:13;;;;;;;0.95;0.50;;;;;;;;;;4975993;28;20050;-77
2024/04/04 00:49:39;;;;;;;5.20;1.58;;;;;;;;;;4991164;28;20104;-77
2024/04/04 00:52:09;;;;;;;2.17;1.25;;;;;;;;;;4991349;28;20047;-76
2024/04/04 00:54:36;;;;;;;2.28;0.95;;;;;;;;;;4962686;28;20046;-76
2024/04/04 00:57:02;;;;;;;3.15;0.90;;;;;;;;;;4959222;28;20047;-77
2024/04/04 00:59:27;;;;;;;2.28;0.70;;;;;;;;;;4991529;28;20081;-77
2024/04/04 01:01:53;;;;;;;0.93;0.60;;;;;;;;;;4975463;28;20145;-77
2024/04/04 01:04:18;;;;;;;2.38;0.68;;;;;;;;;;4991469;28;20097;-77
2024/04/04 01:06:47;;;;;;;2.15;0.70;;;;;;;;;;5004865;28;20077;-76
2024/04/04 01:09:14;;;;;;;2.97;0.90;;;;;;;;;;4963832;28;20051;-75
2024/04/04 01:11:39;;;;;;;1.70;0.57;;;;;;;;;;4977084;28;20107;-77
2024/04/04 01:14:05;;;;;;;4.03;0.43;;;;;;;;;;4981258;28;20496;-79
2024/04/04 01:16:31;;;;;;;1.70;0.50;;;;;;;;;;4980582;28;20054;-77
2024/04/04 01:18:56;;;;;;;5.07;0.50;;;;;;;;;;4977755;28;20165;-77
2024/04/04 01:21:22;;;;;;;3.00;0.75;;;;;;;;;;4992081;28;20545;-78
2024/04/04 01:23:47;;;;;;;2.33;0.68;;;;;;;;;;4992636;28;20138;-77
2024/04/04 01:26:14;;;;;;;3.13;0.70;;;;;;;;;;4976467;28;20077;-78
2024/04/04 01:28:39;;;;;;;1.67;0.65;;;;;;;;;;4981986;28;20050;-78
2024/04/04 01:31:05;;;;;;;2.03;0.60;;;;;;;;;;5007826;28;20141;-79
2024/04/04 01:33:31;;;;;;;1.55;0.82;;;;;;;;;;4988890;28;20096;-79
2024/04/04 01:35:56;;;;;;;1.45;0.70;;;;;;;;;;4995255;28;20050;-79
2024/04/04 01:38:22;;;;;;;2.63;0.90;;;;;;;;;;4991217;28;20046;-79
2024/04/04 01:40:48;;;;;;;3.55;0.80;;;;;;;;;;4997289;28;20125;-78
2024/04/04 01:43:14;;;;;;;3.20;0.70;;;;;;;;;;4992566;28;20444;-79
2024/04/04 01:45:39;;;;;;;1.63;0.75;;;;;;;;;;4994385;28;20073;-78
2024/04/04 01:48:05;;;;;;;4.85;1.20;;;;;;;;;;4995568;28;20069;-78
2024/04/04 01:50:31;;;;;;;7.32;1.75;;;;;;;;;;4961116;28;20134;-78
2024/04/04 01:52:56;;;;;;;2.58;1.10;;;;;;;;;;4977416;28;20061;-78
2024/04/04 01:55:22;;;;;;;1.73;0.73;;;;;;;;;;4993707;28;20092;-79
2024/04/04 01:57:47;;;;;;;0.90;0.50;;;;;;;;;;4978088;28;20050;-79
2024/04/04 02:00:13;;;;;;;1.58;0.57;;;;;;;;;;4993950;28;20050;-79
2024/04/04 02:02:39;;;;;;;5.10;0.82;;;;;;;;;;4977953;28;20096;-80
2024/04/04 02:05:05;;;;;;;0.73;0.55;;;;;;;;;;4978443;28;20093;-79
2024/04/04 02:07:30;;;;;;;2.63;1.10;;;;;;;;;;4994536;28;20515;-80
2024/04/04 02:09:56;;;;;;;1.60;0.57;;;;;;;;;;4993525;28;20058;-78
2024/04/04 02:12:21;;;;;;;3.55;0.70;;;;;;;;;;4977664;28;20046;-78
2024/04/04 02:14:47;;;;;;;4.63;0.80;;;;;;;;;;4972238;28;20050;-77
2024/04/04 02:17:12;;;;;;;1.65;0.40;;;;;;;;;;4977475;28;20082;-78
2024/04/04 02:19:38;;;;;;;2.17;0.60;;;;;;;;;;4991267;28;20090;-78
2024/04/04 02:22:04;;;;;;;3.63;0.75;;;;;;;;;;4962138;28;20058;-79
2024/04/04 02:24:29;;;;;;;4.38;0.60;;;;;;;;;;4993055;28;20796;-79
2024/04/04 02:26:55;;;;;;;2.78;0.50;;;;;;;;;;4977761;28;20050;-79
2024/04/04 02:29:20;;;;;;;0.65;0.50;;;;;;;;;;4984734;28;20128;-79
2024/04/04 02:31:46;;;;;;;2.50;0.30;;;;;;;;;;4978085;28;20596;-79
2024/04/04 02:34:12;;;;;;;2.50;0.50;;;;;;;;;;4960402;28;20061;-79
2024/04/04 02:36:38;;;;;;;0.63;0.45;;;;;;;;;;4975787;28;20054;-79
2024/04/04 02:39:04;;;;;;;0.40;0.40;;;;;;;;;;4976533;28;20095;-79
2024/04/04 02:41:29;;;;;;;4.72;0.70;;;;;;;;;;4976214;28;20064;-79
2024/04/04 02:43:55;;;;;;;2.53;0.43;;;;;;;;;;4977946;28;20042;-79
2024/04/04 02:46:21;;;;;;;1.77;0.70;;;;;;;;;;4975844;28;20423;-79
2024/04/04 02:48:46;;;;;;;5.63;0.50;;;;;;;;;;4977348;28;20164;-79
2024/04/04 02:51:12;;;;;;;1.38;0.40;;;;;;;;;;4993646;28;20046;-79
2024/04/04 02:53:38;;;;;;;1.58;0.52;;;;;;;;;;4992173;28;20065;-78
2024/04/04 02:56:04;;;;;;;1.45;0.40;;;;;;;;;;4978668;28;20046;-79
2024/04/04 02:58:30;;;;;;;2.25;0.55;;;;;;;;;;4976970;28;20073;-78
2024/04/04 03:01:02;;;;;;;0.88;0.50;;;;;;;;;;4979288;28;20054;-78
2024/04/04 03:03:27;;;;;;;3.77;1.43;;;;;;;;;;4976588;28;20054;-78
2024/04/04 03:05:53;;;;;;;0.88;0.45;;;;;;;;;;4978387;28;20081;-77
2024/04/04 03:08:18;;;;;;;3.22;0.50;;;;;;;;;;4998742;28;20142;-78
2024/04/04 03:10:44;;;;;;;3.33;0.80;;;;;;;;;;4965440;28;20485;-78
2024/04/04 03:13:10;;;;;;;1.55;0.85;;;;;;;;;;4996469;28;20050;-78
2024/04/04 03:15:35;;;;;;;0.77;0.38;;;;;;;;;;4995538;28;20169;-79
2024/04/04 03:18:01;;;;;;;4.07;0.93;;;;;;;;;;4997005;28;20050;-79
2024/04/04 03:20:26;;;;;;;3.25;0.50;;;;;;;;;;4963425;28;20054;-80
2024/04/04 03:22:52;;;;;;;1.92;0.50;;;;;;;;;;4981034;28;20061;-80
2024/04/04 03:25:17;;;;;;;2.17;0.52;;;;;;;;;;4979612;28;20421;-80
2024/04/04 03:27:43;;;;;;;1.67;0.50;;;;;;;;;;4996559;28;20585;-79
2024/04/04 03:30:09;;;;;;;4.55;0.65;;;;;;;;;;4996003;28;20097;-79
2024/04/04 03:32:34;;;;;;;1.92;0.40;;;;;;;;;;4998023;28;20109;-77
2024/04/04 03:35:00;;;;;;;2.60;0.60;;;;;;;;;;4978427;28;20050;-80
2024/04/04 03:37:26;;;;;;;1.75;0.38;;;;;;;;;;4973274;28;20053;-80
2024/04/04 03:39:54;;;;;;;0.70;0.40;;;;;;;;;;4981141;28;20097;-81
2024/04/04 03:42:22;;;;;;;1.45;0.65;;;;;;;;;;4976630;28;20047;-79
2024/04/04 03:44:51;;;;;;;2.88;0.60;;;;;;;;;;4970016;28;20057;-80
2024/04/04 03:47:16;;;;;;;1.63;0.55;;;;;;;;;;4989904;28;20086;-80
2024/04/04 03:49:42;;;;;;;1.52;0.80;;;;;;;;;;4983896;28;20058;-80
2024/04/04 03:52:08;;;;;;;2.08;0.50;;;;;;;;;;4984009;28;20416;-77
2024/04/04 03:54:33;;;;;;;2.40;0.50;;;;;;;;;;4985146;28;20072;-77
2024/04/04 03:56:59;;;;;;;1.10;0.38;;;;;;;;;;4979348;28;20069;-78
2024/04/04 03:59:24;;;;;;;1.48;0.52;;;;;;;;;;4997380;28;20053;-77
2024/04/04 04:01:51;;;;;;;1.98;0.52;;;;;;;;;;4994050;28;20437;-78
2024/04/04 04:04:16;;;;;;;2.67;0.47;;;;;;;;;;4962877;28;20053;-78
2024/04/04 04:06:42;;;;;;;2.38;0.40;;;;;;;;;;4981025;28;20789;-78
2024/04/04 04:09:07;;;;;;;3.47;0.43;;;;;;;;;;4995913;28;20085;-77
2024/04/04 04:11:33;;;;;;;3.42;1.27;;;;;;;;;;4980667;28;20105;-79
2024/04/04 04:13:59;;;;;;;3.47;0.43;;;;;;;;;;5008481;28;20065;-75
2024/04/04 04:16:24;;;;;;;2.08;0.98;;;;;;;;;;5002742;28;20062;-76
2024/04/04 04:18:50;;;;;;;1.98;0.50;;;;;;;;;;5018300;28;20097;-77
2024/04/04 04:21:21;;;;;;;3.60;1.40;;;;;;;;;;4993869;28;20531;-78
2024/04/04 04:23:51;;;;;;;7.22;1.30;;;;;;;;;;4996477;28;20050;-79
2024/04/04 04:26:17;;;;;;;2.42;0.70;;;;;;;;;;4996358;28;20501;-79
2024/04/04 04:28:43;;;;;;;3.22;1.30;;;;;;;;;;4978138;28;20112;-79
2024/04/04 04:31:21;;;;;;;1.25;0.43;;;;;;;;;;4967408;28;20054;-78
2024/04/04 04:33:47;;;;;;;0.75;0.40;;;;;;;;;;4987635;28;20425;-78
2024/04/04 04:36:12;;;;;;;1.45;0.40;;;;;;;;;;4988817;28;20077;-78
2024/04/04 04:38:38;;;;;;;1.80;0.57;;;;;;;;;;5007408;28;20050;-78
2024/04/04 04:41:04;;;;;;;2.88;0.82;;;;;;;;;;5006074;28;20137;-78
2024/04/04 04:43:29;;;;;;;0.70;0.40;;;;;;;;;;5000485;28;20424;-78
2024/04/04 04:45:55;;;;;;;1.02;0.50;;;;;;;;;;4982325;28;20062;-78
2024/04/04 04:48:21;;;;;;;2.50;0.47;;;;;;;;;;4979465;28;20086;-78
2024/04/04 04:50:47;;;;;;;1.23;0.50;;;;;;;;;;4998667;28;20066;-79
2024/04/04 04:53:13;;;;;;;1.08;0.30;;;;;;;;;;4966325;28;20061;-78
2024/04/04 04:55:38;;;;;;;1.15;0.40;;;;;;;;;;4982431;28;20428;-81
2024/04/04 04:58:04;;;;;;;2.13;1.00;;;;;;;;;;4989288;28;20050;-77
2024/04/04 05:00:30;;;;;;;2.40;0.30;;;;;;;;;;4984422;28;20050;-76
2024/04/04 05:02:58;;;;;;;1.42;0.50;;;;;;;;;;4988532;28;20055;-85
2024/04/04 05:05:24;;;;;;;1.60;0.40;;;;;;;;;;4982373;28;20053;-80
2024/04/04 05:07:51;;;;;;;3.70;1.13;;;;;;;;;;4962185;28;20523;-76
2024/04/04 05:10:16;;;;;;;1.60;0.63;;;;;;;;;;4991663;28;20061;-76
2024/04/04 05:12:42;;;;;;;2.83;0.65;;;;;;;;;;4991354;28;20645;-75
2024/04/04 05:15:07;;;;;;;0.90;0.50;;;;;;;;;;4974283;28;20082;-76
2024/04/04 05:17:33;;;;;;;0.80;0.47;;;;;;;;;;4977248;28;20185;-79
2024/04/04 05:19:59;;;;;;;6.40;0.95;;;;;;;;;;4969623;28;20424;-80
2024/04/04 05:22:29;;;;;;;2.03;0.90;;;;;;;;;;4977980;28;20060;-76
2024/04/04 05:24:56;;;;;;;1.35;0.70;;;;;;;;;;4976204;28;20058;-77
2024/04/04 05:27:22;;;;;;;3.45;0.50;;;;;;;;;;4974628;28;20058;-81
2024/04/04 05:29:47;;;;;;;3.15;0.50;;;;;;;;;;4997808;28;20057;-80
2024/04/04 05:32:13;;;;;;;4.03;0.77;;;;;;;;;;4994940;28;20094;-81
2024/04/04 05:34:40;;;;;;;1.13;0.40;;;;;;;;;;4970682;28;20484;-80
2024/04/04 05:37:06;;;;;;;3.38;0.80;;;;;;;;;;4953735;28;20058;-81
2024/04/04 05:39:31;;;;;;;3.40;0.93;;;;;;;;;;4999836;28;20173;-82
2024/04/04 05:41:57;;;;;;;1.80;0.45;;;;;;;;;;4986637;28;20101;-80
2024/04/04 05:44:22;;;;;;;2.50;0.73;;;;;;;;;;4986012;28;20137;-79
2024/04/04 05:46:48;;;;;;;2.92;0.85;;;;;;;;;;4983047;28;20058;-81
2024/04/04 05:49:14;;;;;;;2.17;0.70;;;;;;;;;;4985579;28;20533;-80
2024/04/04 05:51:47;;;;;;;3.22;0.63;;;;;;;;;;5150013;27;20380;-77
2024/04/04 05:54:13;;;;;;;3.88;0.82;;;;;;;;;;5076562;27;20076;-78
2024/04/04 05:56:39;;;;;;;1.00;0.50;;;;;;;;;;5076119;28;20055;-77
2024/04/04 05:59:04;;;;;;;4.00;0.60;;;;;;;;;;5075011;28;20455;-78
2024/04/04 06:01:30;;;;;;;2.63;0.93;;;;;;;;;;5074729;28;20091;-76
2024/04/04 06:03:55;;;;;;;2.17;0.75;;;;;;;;;;5056653;28;20060;-76
2024/04/04 06:06:21;;;;;;;1.92;0.73;;;;;;;;;;5072054;28;20059;-76
2024/04/04 06:08:46;;;;;;;1.88;0.60;;;;;;;;;;5072844;28;20087;-81
2024/04/04 06:11:12;;;;;;;6.97;1.17;;;;;;;;;;5071949;28;20097;-74
2024/04/04 06:13:38;;;;;;;3.88;1.05;;;;;;;;;;5071803;28;20052;-74
2024/04/04 06:16:04;;;;;;;2.38;0.50;;;;;;;;;;5071639;28;20051;-74
2024/04/04 06:18:30;;;;;;;2.10;0.73;;;;;;;;;;5088699;28;20597;-76
2024/04/04 06:20:55;;;;;;;3.42;0.80;;;;;;;;;;5066622;28;20101;-79
2024/04/04 06:23:21;;;;;;;2.75;0.60;;;;;;;;;;5067447;28;20051;-75
2024/04/04 06:25:47;;;;;;;2.22;0.73;;;;;;;;;;5073487;28;20063;-76
2024/04/04 06:28:12;;;;;;;4.63;0.57;;;;;;;;;;5070590;28;20082;-75
2024/04/04 06:30:38;;;;;;;5.75;1.42;;;;;;;;;;5091870;28;20151;-74
2024/04/04 06:33:04;;;;;;;4.20;1.17;;;;;;;;;;5067063;28;20052;-75
2024/04/04 06:35:29;;;;;;;3.50;0.80;;;;;;;;;;5088413;28;20601;-75
2024/04/04 06:37:56;;;;;;;5.05;0.80;;;;;;;;;;5101594;28;20119;-78
2024/04/04 06:40:22;;;;;;;2.90;1.08;;;;;;;;;;5074896;28;20054;-81
2024/04/04 06:42:47;;;;;;;3.72;0.75;;;;;;;;;;5058229;28;20080;-77
2024/04/04 06:45:13;;;;;;;4.45;1.23;;;;;;;;;;5085263;28;20060;-75
2024/04/04 06:47:42;;;;;;;2.92;0.65;;;;;;;;;;5092850;28;20055;-76
2024/04/04 06:50:08;;;;;;;3.10;0.75;;;;;;;;;;5072311;28;20055;-77
2024/04/04 06:52:33;;;;;;;4.38;0.75;;;;;;;;;;5090146;28;20048;-76
2024/04/04 06:54:59;;;;;;;2.35;0.75;;;;;;;;;;5072447;28;20047;-76
2024/04/04 06:57:25;;;;;;;2.72;1.45;;;;;;;;;;5084333;28;20044;-75
2024/04/04 06:59:50;;;;;;;4.63;0.90;;;;;;;;;;5096449;28;20047;-77
2024/04/04 07:02:16;;;;;;;7.35;1.15;;;;;;;;;;5080454;28;20079;-77
2024/04/04 07:04:42;;;;;;;3.58;1.10;;;;;;;;;;5075431;28;20201;-76
2024/04/04 07:07:07;;;;;;;2.90;0.90;;;;;;;;;;5055225;28;20056;-77
2024/04/04 07:09:33;;;;;;;4.00;0.70;;;;;;;;;;5054518;28;20460;-76
2024/04/04 07:11:58;;;;;;;3.28;0.95;;;;;;;;;;5058867;28;20059;-80
2024/04/04 07:14:24;;;;;;;4.53;0.77;;;;;;;;;;5057930;28;20533;-77
2024/04/04 07:16:49;;;;;;;6.90;1.00;;;;;;;;;;5058549;28;20051;-76
2024/04/04 07:19:15;;;;;;;2.38;0.73;;;;;;;;;;5059139;28;20047;-77
2024/04/04 07:21:41;;;;;;;5.03;0.80;;;;;;;;;;5058672;28;20101;-75
2024/04/04 07:24:06;;;;;;;7.60;1.17;;;;;;;;;;5058338;28;20059;-75
2024/04/04 07:26:32;;;;;;;3.33;1.27;;;;;;;;;;5078648;28;20055;-76
2024/04/04 07:28:57;;;;;;;4.05;1.17;;;;;;;;;;5080432;28;20056;-75
2024/04/04 07:31:23;;;;;;;6.85;1.30;;;;;;;;;;5077020;28;20072;-73
2024/04/04 07:33:49;;;;;;;8.57;1.80;;;;;;;;;;5102531;28;20056;-75
2024/04/04 07:36:14;;;;;;;4.88;1.50;;;;;;;;;;5097362;28;20048;-73
2024/04/04 07:38:40;;;;;;;8.10;0.90;;;;;;;;;;5084498;28;20065;-73
2024/04/04 07:41:06;;;;;;;3.97;0.90;;;;;;;;;;5071431;28;20130;-75
2024/04/04 07:43:31;;;;;;;5.13;0.90;;;;;;;;;;5076718;28;20051;-75
2024/04/04 07:45:57;;;;;;;5.07;1.15;;;;;;;;;;5076002;28;20056;-75
2024/04/04 07:48:22;;;;;;;6.85;1.00;;;;;;;;;;5060145;28;20091;-76
2024/04/04 07:50:48;;;;;;;6.57;1.35;;;;;;;;;;5058980;28;20428;-75
2024/04/04 07:53:13;;;;;;;4.60;0.85;;;;;;;;;;5058933;28;20048;-75
2024/04/04 07:55:39;;;;;;;3.50;0.85;;;;;;;;;;5058634;28;20052;-75
2024/04/04 07:58:05;;;;;;;4.63;1.23;;;;;;;;;;5058888;28;20153;-75
2024/04/04 08:00:31;;;;;;;6.38;1.58;;;;;;;;;;5058735;28;20063;-75
2024/04/04 08:02:59;;;;;;;5.78;2.10;;;;;;;;;;5058693;28;20579;-75
2024/04/04 08:05:25;;;;;;;4.50;1.88;;;;;;;;;;5042095;28;20100;-75
2024/04/04 08:07:50;;;;;;;6.15;1.30;;;;;;;;;;5075532;28;20051;-75
2024/04/04 08:10:18;;;;;;;8.48;1.65;;;;;;;;;;5058361;28;20543;-75
2024/04/04 08:12:44;;;;;;;6.10;1.38;;;;;;;;;;5058237;28;20059;-75
2024/04/04 08:15:12;;;;;;;5.38;1.50;;;;;;;;;;5057641;28;20052;-75
2024/04/04 08:17:46;;;;;;;5.07;0.80;;;;;;;;;;5075065;28;20425;-75
2024/04/04 08:20:15;;;;;;;6.93;1.50;;;;;;;;;;5074995;28;20509;-74
2024/04/04 08:22:40;;;;;;;8.75;1.45;;;;;;;;;;5058204;28;20082;-74
2024/04/04 08:25:06;;;;;;;4.35;1.10;;;;;;;;;;5050093;28;20055;-75
2024/04/04 08:27:32;;;;;;;6.45;1.17;;;;;;;;;;5074968;28;20048;-75
2024/04/04 08:29:57;;;;;;;2.10;0.50;;;;;;;;;;5058287;28;20052;-75
2024/04/04 08:32:23;;;;;;;6.63;1.30;;;;;;;;;;5058491;28;20527;-75
2024/04/04 08:34:49;;;;;;;4.93;0.70;;;;;;;;;;5058037;28;20044;-75
2024/04/04 08:37:15;;;;;;;3.05;1.00;;;;;;;;;;5074495;28;20040;-75
2024/04/04 08:39:40;;;;;;;3.03;0.88;;;;;;;;;;5074373;28;20052;-75
2024/04/04 08:42:06;;;;;;;3.88;1.10;;;;;;;;;;5057982;28;20055;-75
2024/04/04 08:44:31;;;;;;;4.13;0.90;;;;;;;;;;5057982;28;20047;-75
2024/04/04 08:46:58;;;;;;;3.50;0.90;;;;;;;;;;5057665;28;20426;-75
2024/04/04 08:49:26;;;;;;;5.57;1.13;;;;;;;;;;5074599;28;20104;-75
2024/04/04 08:51:51;;;;;;;3.28;0.90;;;;;;;;;;5076258;28;20053;-75
2024/04/04 08:54:20;;;;;;;4.43;1.15;;;;;;;;;;5060423;28;20600;-74
2024/04/04 08:56:46;;;;;;;5.90;1.30;;;;;;;;;;5057353;28;20043;-75
2024/04/04 08:59:12;;;;;;;3.13;1.10;;;;;;;;;;5057976;28;20174;-75
2024/04/04 09:01:37;;;;;;;7.15;1.42;;;;;;;;;;5057781;28;20426;-75
2024/04/04 09:04:03;;;;;;;6.10;0.95;;;;;;;;;;5057461;28;20056;-75
2024/04/04 09:06:28;;;;;;;2.85;1.10;;;;;;;;;;5057425;28;20060;-74
2024/04/04 09:08:57;;;;;;;4.60;1.63;;;;;;;;;;5057501;28;20052;-75
2024/04/04 09:11:24;;;;;;;3.08;0.93;;;;;;;;;;5074156;28;20048;-75
2024/04/04 09:13:49;;;;;;;2.85;0.75;;;;;;;;;;5074382;28;20467;-75
2024/04/04 09:16:20;;;;;;;4.63;0.90;;;;;;;;;;5057305;28;20055;-74
2024/04/04 09:18:45;;;;;;;6.18;1.08;;;;;;;;;;5057669;28;20052;-75
2024/04/04 09:21:11;;;;;;;5.43;0.77;;;;;;;;;;5057660;28;20390;-74
2024/04/04 09:23:36;;;;;;;10.73;2.45;;;;;;;;;;5057580;28;20071;-75
2024/04/04 09:26:02;;;;;;;2.10;0.70;;;;;;;;;;5056592;28;20557;-75
2024/04/04 09:28:27;;;;;;;3.58;1.05;;;;;;;;;;5058420;28;20052;-75
2024/04/04 09:30:53;;;;;;;4.75;1.10;;;;;;;;;;5074192;28;20040;-74
2024/04/04 09:33:20;;;;;;;5.95;0.82;;;;;;;;;;5057362;28;20056;-74
2024/04/04 09:35:47;;;;;;;3.55;0.70;;;;;;;;;;5073878;28;20413;-75
2024/04/04 09:38:12;;;;;;;4.63;1.08;;;;;;;;;;5057100;28;20428;-75
2024/04/04 09:40:38;;;;;;;5.97;2.13;;;;;;;;;;5057168;28;20055;-75
2024/04/04 09:43:03;;;;;;;15.70;8.05;;;;;;;;;;5057365;28;20424;-74
2024/04/04 09:45:29;;;;;;;3.83;1.95;;;;;;;;;;5056695;28;20436;-75
2024/04/04 09:47:54;;;;;;;4.72;1.52;;;;;;;;;;5057258;28;20356;-75
2024/04/04 09:50:20;;;;;;;3.10;0.85;;;;;;;;;;5056766;28;20048;-75
2024/04/04 09:52:46;;;;;;;4.57;1.05;;;;;;;;;;5056967;28;20052;-74
2024/04/04 09:55:15;;;;;;;2.75;1.13;;;;;;;;;;5039999;28;20054;-74
2024/04/04 09:57:41;;;;;;;3.67;0.75;;;;;;;;;;5056829;28;20094;-75
2024/04/04 10:00:16;;;;;;;4.43;0.75;;;;;;;;;;5056660;28;20056;-75
2024/04/04 10:02:53;;;;;;;3.78;0.93;;;;;;;;;;5056779;28;20048;-75
2024/04/04 10:05:19;;;;;;;7.25;0.93;;;;;;;;;;5056576;28;20259;-75
2024/04/04 10:07:47;;;;;;;4.15;1.20;;;;;;;;;;5073570;28;20549;-75
2024/04/04 10:10:20;;;;;;;3.95;1.02;;;;;;;;;;5057117;28;20475;-75
2024/04/04 10:12:52;;;;;;;3.15;0.80;;;;;;;;;;5073575;28;20044;-75
2024/04/04 10:15:18;;;;;;;4.40;0.83;;;;;;;;;;5073167;28;20059;-75
2024/04/04 10:17:45;;;;;;;4.88;0.75;;;;;;;;;;5073051;28;20286;-74
2024/04/04 10:20:10;;;;;;;2.85;0.70;;;;;;;;;;5073215;28;20048;-75
2024/04/04 10:22:36;;;;;;;2.30;0.68;;;;;;;;;;5056513;28;20055;-74
2024/04/04 10:25:04;;;;;;;4.15;1.10;;;;;;;;;;5056408;28;20052;-75
2024/04/04 10:27:30;;;;;;;6.40;1.58;;;;;;;;;;5040478;28;20052;-75
2024/04/04 10:29:55;;;;;;;3.05;0.65;;;;;;;;;;5056448;28;20048;-75
2024/04/04 10:32:22;;;;;;;5.55;1.27;;;;;;;;;;5056726;28;20063;-75
2024/04/04 10:34:58;;;;;;;4.38;1.40;;;;;;;;;;5056547;28;20052;-74
2024/04/04 10:37:24;;;;;;;3.63;0.80;;;;;;;;;;5058158;28;20044;-75
2024/04/04 10:39:49;;;;;;;5.57;1.92;;;;;;;;;;5060258;28;20109;-75
2024/04/04 10:42:15;;;;;;;5.43;1.27;;;;;;;;;;5062709;28;20506;-75
2024/04/04 10:44:41;;;;;;;3.53;1.00;;;;;;;;;;5068121;28;20059;-75
2024/04/04 10:47:07;;;;;;;5.28;1.02;;;;;;;;;;5065660;28;20055;-75
2024/04/04 10:49:33;;;;;;;2.58;1.25;;;;;;;;;;5060344;28;20044;-75
2024/04/04 10:51:59;;;;;;;3.53;0.75;;;;;;;;;;5059711;28;20078;-75
2024/04/04 10:54:25;;;;;;;5.07;1.38;;;;;;;;;;5059879;28;20063;-75
2024/04/04 10:56:51;;;;;;;2.55;0.95;;;;;;;;;;5076288;28;20048;-75
2024/04/04 10:59:20;;;;;;;5.30;1.38;;;;;;;;;;5076350;28;20083;-75
2024/04/04 11:01:46;;;;;;;2.95;1.00;;;;;;;;;;5076619;28;20399;-75
2024/04/04 11:04:12;;;;;;;5.45;0.80;;;;;;;;;;5076382;28;20101;-75
2024/04/04 11:06:41;;;;;;;2.17;1.10;;;;;;;;;;5059417;28;20135;-75
2024/04/04 11:09:11;;;;;;;9.68;3.35;;;;;;;;;;5076282;28;20051;-75
2024/04/04 11:11:40;;;;;;;4.07;0.75;;;;;;;;;;5060081;28;20059;-74
2024/04/04 11:14:05;;;;;;;3.75;0.70;;;;;;;;;;5056341;28;20048;-75
2024/04/04 11:16:31;;;;;;;2.55;0.80;;;;;;;;;;5054891;28;20059;-75
2024/04/04 11:18:57;;;;;;;7.85;1.90;;;;;;;;;;5059616;28;20048;-74
2024/04/04 11:21:23;;;;;;;3.53;0.90;;;;;;;;;;5060410;28;20501;-74
2024/04/04 11:23:48;;;;;;;3.72;0.90;;;;;;;;;;5060064;28;20113;-75
2024/04/04 11:26:14;;;;;;;5.38;0.85;;;;;;;;;;5059263;28;20056;-75
2024/04/04 11:28:40;;;;;;;5.28;1.10;;;;;;;;;;5059636;28;20062;-75
2024/04/04 11:31:05;;;;;;;2.92;0.80;;;;;;;;;;5059447;28;20502;-75
2024/04/04 11:33:31;;;;;;;5.72;1.55;;;;;;;;;;5059271;28;20056;-75
2024/04/04 11:35:57;;;;;;;5.15;1.23;;;;;;;;;;5058907;28;20059;-74
2024/04/04 11:38:22;;;;;;;7.07;1.52;;;;;;;;;;5063129;28;20078;-73
2024/04/04 11:40:48;;;;;;;3.20;1.13;;;;;;;;;;5067877;28;20063;-74
2024/04/04 11:43:14;;;;;;;3.67;1.98;;;;;;;;;;5068297;28;20079;-74
2024/04/04 11:45:40;;;;;;;4.10;0.85;;;;;;;;;;5081103;28;20059;-75
2024/04/04 11:48:05;;;;;;;3.45;0.85;;;;;;;;;;5066305;28;20044;-73
2024/04/04 11:50:31;;;;;;;3.42;0.68;;;;;;;;;;5078701;28;20063;-74
2024/04/04 11:53:01;;;;;;;6.20;1.55;;;;;;;;;;5042699;28;20063;-75
2024/04/04 11:55:27;;;;;;;3.28;0.93;;;;;;;;;;5059027;28;20055;-75
2024/04/04 11:57:53;;;;;;;4.78;1.40;;;;;;;;;;5076756;28;20063;-75
2024/04/04 12:00:20;;;;;;;1.83;0.68;;;;;;;;;;5075507;28;20060;-75
2024/04/04 12:02:46;;;;;;;6.63;1.23;;;;;;;;;;5058705;28;20048;-74
2024/04/04 12:05:11;;;;;;;3.72;0.63;;;;;;;;;;5059097;28;20421;-75
2024/04/04 12:07:37;;;;;;;3.15;0.80;;;;;;;;;;5075317;28;20075;-75
2024/04/04 12:10:03;;;;;;;3.20;0.70;;;;;;;;;;5075123;28;20121;-75
2024/04/04 12:12:29;;;;;;;2.78;0.90;;;;;;;;;;5075312;28;20529;-75
2024/04/04 12:14:54;;;;;;;4.93;0.90;;;;;;;;;;5058691;28;20048;-75
2024/04/04 12:17:20;;;;;;;2.53;1.10;;;;;;;;;;5058188;28;20498;-75
2024/04/04 12:19:46;;;;;;;3.10;0.90;;;;;;;;;;5058214;28;20051;-75
2024/04/04 12:22:13;;;;;;;2.88;0.82;;;;;;;;;;5058773;28;20165;-75
2024/04/04 12:24:38;;;;;;;7.15;1.30;;;;;;;;;;5075096;28;20048;-75
2024/04/04 12:27:05;;;;;;;2.15;0.65;;;;;;;;;;5074892;28;20494;-75
2024/04/04 12:29:31;;;;;;;2.80;0.80;;;;;;;;;;5074846;28;20525;-75
2024/04/04 12:31:56;;;;;;;2.35;0.80;;;;;;;;;;5074866;28;20040;-75
2024/04/04 12:34:22;;;;;;;3.53;0.57;;;;;;;;;;5074695;28;20051;-75
2024/04/04 12:36:47;;;;;;;1.70;0.50;;;;;;;;;;5057849;28;20051;-75
2024/04/04 12:39:14;;;;;;;2.03;1.00;;;;;;;;;;5058124;28;20058;-76
2024/04/04 12:41:40;;;;;;;2.35;0.60;;;;;;;;;;5057978;28;20056;-75
2024/04/04 12:44:07;;;;;;;3.38;0.98;;;;;;;;;;5075042;28;20139;-75
2024/04/04 12:46:33;;;;;;;3.97;1.00;;;;;;;;;;5057684;28;20063;-75
2024/04/04 12:48:59;;;;;;;3.10;0.50;;;;;;;;;;5057775;28;20526;-75
2024/04/04 12:51:25;;;;;;;1.70;0.50;;;;;;;;;;5057753;28;20052;-75
2024/04/04 12:53:50;;;;;;;1.23;0.30;;;;;;;;;;5057689;28;20052;-75
2024/04/04 12:56:16;;;;;;;4.43;0.60;;;;;;;;;;5074516;28;20139;-75
2024/04/04 12:58:42;;;;;;;1.92;1.02;;;;;;;;;;5057548;28;20083;-76
2024/04/04 13:01:07;;;;;;;1.55;0.45;;;;;;;;;;5057320;28;20081;-76
2024/04/04 13:03:33;;;;;;;1.45;0.30;;;;;;;;;;5057736;28;20529;-76
2024/04/04 13:05:59;;;;;;;0.30;0.30;;;;;;;;;;5057678;28;20134;-75
2024/04/04 13:08:24;;;;;;;3.53;0.90;;;;;;;;;;5058279;28;20135;-75
2024/04/04 13:10:51;;;;;;;1.83;0.50;;;;;;;;;;5057600;28;20044;-75
2024/04/04 13:13:17;;;;;;;3.08;0.40;;;;;;;;;;5057856;28;20052;-75
2024/04/04 13:15:44;;;;;;;0.95;0.40;;;;;;;;;;5074403;28;20044;-75
2024/04/04 13:18:10;;;;;;;3.70;0.68;;;;;;;;;;5058187;28;20066;-75
2024/04/04 13:20:35;;;;;;;4.88;0.52;;;;;;;;;;5057755;28;20056;-75
2024/04/04 13:23:01;;;;;;;1.60;0.43;;;;;;;;;;5057872;28;20138;-74
2024/04/04 13:25:27;;;;;;;5.43;0.65;;;;;;;;;;5074457;28;20425;-74
2024/04/04 13:27:52;;;;;;;1.33;0.93;;;;;;;;;;5057556;28;20056;-75
2024/04/04 13:30:18;;;;;;;4.20;0.88;;;;;;;;;;5057475;28;20123;-75
2024/04/04 13:32:43;;;;;;;3.65;1.10;;;;;;;;;;5058091;28;20051;-75
2024/04/04 13:35:09;;;;;;;0.73;0.43;;;;;;;;;;5053419;28;20063;-75
2024/04/04 13:37:34;;;;;;;4.47;1.55;;;;;;;;;;5052890;28;20057;-75
2024/04/04 13:40:00;;;;;;;0.63;0.40;;;;;;;;;;5073536;28;20056;-75
2024/04/04 13:42:26;;;;;;;0.70;0.32;;;;;;;;;;5057149;28;20073;-75
2024/04/04 13:44:54;;;;;;;3.38;0.60;;;;;;;;;;5071032;28;20044;-74
2024/04/04 13:47:20;;;;;;;1.63;0.50;;;;;;;;;;5069937;28;20051;-74
2024/04/04 13:49:45;;;;;;;1.55;0.40;;;;;;;;;;5082987;28;20052;-75
2024/04/04 13:52:11;;;;;;;2.05;0.57;;;;;;;;;;5056985;28;20059;-74
2024/04/04 13:54:36;;;;;;;1.33;0.80;;;;;;;;;;5057024;28;20207;-75
2024/04/04 13:57:03;;;;;;;4.28;0.65;;;;;;;;;;5056915;28;20048;-76
2024/04/04 13:59:29;;;;;;;1.20;0.40;;;;;;;;;;5056707;28;20052;-75
2024/04/04 14:01:55;;;;;;;0.98;0.32;;;;;;;;;;5073572;28;20098;-76
2024/04/04 14:04:20;;;;;;;1.65;0.60;;;;;;;;;;5057160;28;20134;-76
2024/04/04 14:06:46;;;;;;;0.55;0.38;;;;;;;;;;5056557;28;20486;-74
2024/04/04 14:09:14;;;;;;;1.83;0.70;;;;;;;;;;5056897;28;20083;-75
2024/04/04 14:11:39;;;;;;;2.22;0.80;;;;;;;;;;5057410;28;20071;-74
2024/04/04 14:14:07;;;;;;;2.45;0.80;;;;;;;;;;5060650;28;20509;-75
2024/04/04 14:16:34;;;;;;;2.15;0.90;;;;;;;;;;5060568;28;20044;-75
2024/04/04 14:19:00;;;;;;;4.03;0.60;;;;;;;;;;5077121;28;20059;-75
2024/04/04 14:21:26;;;;;;;1.48;0.50;;;;;;;;;;5077626;28;20048;-75
2024/04/04 14:23:52;;;;;;;1.60;0.60;;;;;;;;;;5060858;28;20120;-74
2024/04/04 14:26:17;;;;;;;2.88;0.68;;;;;;;;;;5060537;28;20490;-75
2024/04/04 14:28:43;;;;;;;2.00;0.80;;;;;;;;;;5060226;28;20062;-75
2024/04/04 14:31:09;;;;;;;2.67;0.60;;;;;;;;;;5043959;28;20044;-75
2024/04/04 14:33:36;;;;;;;1.30;0.52;;;;;;;;;;5060900;28;20100;-75
2024/04/04 14:36:05;;;;;;;1.08;0.63;;;;;;;;;;5060704;28;20081;-75